sensor_id;sensor_type;location;lat;lon;timestamp;P1;durP1;ratioP1;P2;durP2;ratioP2
50605;SDS011;36557;53.572;10.170;2023-02-22T00:00:52;12.70;;;3.13;;
50605;SDS011;36557;53.572;10.170;2023-02-22T00:05:49;11.88;;;3.38;;
50605;SDS011;36557;53.572;10.170;2023-02-22T00:08:23;12.23;;;3.35;;
50605;SDS011;36557;53.572;10.170;2023-02-22T00:10:55;11.75;;;3.13;;
50605;SDS011;36557;53.572;10.170;2023-02-22T00:13:21;9.27;;;3.00;;
50605;SDS011;36557;53.572;10.170;2023-02-22T00:15:47;11.40;;;3.40;;
50605;SDS011;36557;53.572;10.170;2023-02-22T00:18:14;11.73;;;2.92;;
50605;SDS011;36557;53.572;10.170;2023-02-22T00:20:42;10.40;;;2.97;;
50605;SDS011;36557;53.572;10.170;2023-02-22T00:23:13;14.90;;;3.38;;
50605;SDS011;36557;53.572;10.170;2023-02-22T00:25:44;12.30;;;3.72;;
50605;SDS011;36557;53.572;10.170;2023-02-22T00:28:11;13.25;;;3.35;;
50605;SDS011;36557;53.572;10.170;2023-02-22T00:30:39;12.52;;;3.55;;
50605;SDS011;36557;53.572;10.170;2023-02-22T00:33:07;12.18;;;3.28;;
50605;SDS011;36557;53.572;10.170;2023-02-22T00:35:34;11.43;;;3.35;;
50605;SDS011;36557;53.572;10.170;2023-02-22T00:38:01;18.83;;;4.43;;
50605;SDS011;36557;53.572;10.170;2023-02-22T00:40:29;12.70;;;3.90;;
50605;SDS011;36557;53.572;10.170;2023-02-22T00:42:57;13.45;;;3.60;;
50605;SDS011;36557;53.572;10.170;2023-02-22T00:45:25;10.63;;;3.20;;
50605;SDS011;36557;53.572;10.170;2023-02-22T00:47:52;9.98;;;3.72;;
50605;SDS011;36557;53.572;10.170;2023-02-22T00:50:19;12.18;;;3.83;;
50605;SDS011;36557;53.572;10.170;2023-02-22T00:52:46;11.25;;;3.72;;
50605;SDS011;36557;53.572;10.170;2023-02-22T00:55:15;11.30;;;3.75;;
50605;SDS011;36557;53.572;10.170;2023-02-22T00:57:43;12.40;;;3.63;;
50605;SDS011;36557;53.572;10.170;2023-02-22T01:00:13;12.07;;;3.88;;
50605;SDS011;36557;53.572;10.170;2023-02-22T01:02:41;11.63;;;4.50;;
50605;SDS011;36557;53.572;10.170;2023-02-22T01:05:09;17.65;;;4.47;;
50605;SDS011;36557;53.572;10.170;2023-02-22T01:07:37;14.10;;;4.10;;
50605;SDS011;36557;53.572;10.170;2023-02-22T01:10:04;11.35;;;3.75;;
50605;SDS011;36557;53.572;10.170;2023-02-22T01:12:30;10.90;;;4.00;;
50605;SDS011;36557;53.572;10.170;2023-02-22T01:14:57;12.93;;;4.60;;
50605;SDS011;36557;53.572;10.170;2023-02-22T01:17:23;17.77;;;4.38;;
50605;SDS011;36557;53.572;10.170;2023-02-22T01:19:49;12.98;;;3.95;;
50605;SDS011;36557;53.572;10.170;2023-02-22T01:22:16;16.48;;;4.25;;
50605;SDS011;36557;53.572;10.170;2023-02-22T01:24:43;14.38;;;3.97;;
50605;SDS011;36557;53.572;10.170;2023-02-22T01:27:08;16.65;;;5.38;;
50605;SDS011;36557;53.572;10.170;2023-02-22T01:29:35;9.02;;;3.45;;
50605;SDS011;36557;53.572;10.170;2023-02-22T01:32:01;12.52;;;4.28;;
50605;SDS011;36557;53.572;10.170;2023-02-22T01:34:26;9.70;;;3.72;;
50605;SDS011;36557;53.572;10.170;2023-02-22T01:36:54;12.25;;;4.47;;
50605;SDS011;36557;53.572;10.170;2023-02-22T01:39:20;14.93;;;4.47;;
50605;SDS011;36557;53.572;10.170;2023-02-22T01:41:46;15.02;;;4.72;;
50605;SDS011;36557;53.572;10.170;2023-02-22T01:44:16;13.77;;;5.18;;
50605;SDS011;36557;53.572;10.170;2023-02-22T01:46:43;17.85;;;4.65;;
50605;SDS011;36557;53.572;10.170;2023-02-22T01:49:09;17.90;;;5.70;;
50605;SDS011;36557;53.572;10.170;2023-02-22T01:51:37;19.10;;;5.45;;
50605;SDS011;36557;53.572;10.170;2023-02-22T01:54:08;18.05;;;5.30;;
50605;SDS011;36557;53.572;10.170;2023-02-22T01:56:38;11.25;;;4.70;;
50605;SDS011;36557;53.572;10.170;2023-02-22T01:59:09;19.98;;;4.82;;
50605;SDS011;36557;53.572;10.170;2023-02-22T02:01:37;17.63;;;5.00;;
50605;SDS011;36557;53.572;10.170;2023-02-22T02:04:09;14.65;;;4.55;;
50605;SDS011;36557;53.572;10.170;2023-02-22T02:06:39;12.07;;;4.38;;
50605;SDS011;36557;53.572;10.170;2023-02-22T02:12:00;11.52;;;5.03;;
50605;SDS011;36557;53.572;10.170;2023-02-22T02:14:27;11.05;;;4.85;;
50605;SDS011;36557;53.572;10.170;2023-02-22T02:16:55;15.32;;;4.50;;
50605;SDS011;36557;53.572;10.170;2023-02-22T02:22:16;13.18;;;4.60;;
50605;SDS011;36557;53.572;10.170;2023-02-22T02:33:41;13.18;;;4.53;;
50605;SDS011;36557;53.572;10.170;2023-02-22T02:38:39;15.80;;;4.65;;
50605;SDS011;36557;53.572;10.170;2023-02-22T02:43:49;10.55;;;4.03;;
50605;SDS011;36557;53.572;10.170;2023-02-22T02:48:55;8.25;;;4.00;;
50605;SDS011;36557;53.572;10.170;2023-02-22T02:51:43;11.70;;;3.88;;
50605;SDS011;36557;53.572;10.170;2023-02-22T02:54:13;12.30;;;3.50;;
50605;SDS011;36557;53.572;10.170;2023-02-22T02:56:40;13.98;;;3.90;;
50605;SDS011;36557;53.572;10.170;2023-02-22T03:04:46;9.68;;;3.88;;
50605;SDS011;36557;53.572;10.170;2023-02-22T03:07:30;8.45;;;3.50;;
50605;SDS011;36557;53.572;10.170;2023-02-22T03:10:20;14.75;;;4.00;;
50605;SDS011;36557;53.572;10.170;2023-02-22T03:12:59;12.35;;;4.65;;
50605;SDS011;36557;53.572;10.170;2023-02-22T03:18:04;11.25;;;3.97;;
50605;SDS011;36557;53.572;10.170;2023-02-22T03:26:13;11.98;;;3.85;;
50605;SDS011;36557;53.572;10.170;2023-02-22T03:28:48;10.77;;;3.78;;
50605;SDS011;36557;53.572;10.170;2023-02-22T03:31:24;16.30;;;4.90;;
50605;SDS011;36557;53.572;10.170;2023-02-22T03:34:00;11.10;;;3.75;;
50605;SDS011;36557;53.572;10.170;2023-02-22T03:36:47;9.68;;;3.63;;
50605;SDS011;36557;53.572;10.170;2023-02-22T03:39:20;10.15;;;3.95;;
50605;SDS011;36557;53.572;10.170;2023-02-22T03:41:55;10.52;;;4.15;;
50605;SDS011;36557;53.572;10.170;2023-02-22T03:44:26;12.75;;;4.40;;
50605;SDS011;36557;53.572;10.170;2023-02-22T03:46:55;10.25;;;3.95;;
50605;SDS011;36557;53.572;10.170;2023-02-22T03:49:43;8.60;;;3.63;;
50605;SDS011;36557;53.572;10.170;2023-02-22T03:52:17;11.13;;;4.43;;
50605;SDS011;36557;53.572;10.170;2023-02-22T03:54:43;10.63;;;4.22;;
50605;SDS011;36557;53.572;10.170;2023-02-22T03:57:11;11.00;;;4.00;;
50605;SDS011;36557;53.572;10.170;2023-02-22T03:59:41;13.35;;;4.07;;
50605;SDS011;36557;53.572;10.170;2023-02-22T04:02:07;11.23;;;3.65;;
50605;SDS011;36557;53.572;10.170;2023-02-22T04:04:33;12.10;;;4.53;;
50605;SDS011;36557;53.572;10.170;2023-02-22T04:06:59;13.68;;;4.18;;
50605;SDS011;36557;53.572;10.170;2023-02-22T04:09:24;14.75;;;4.75;;
50605;SDS011;36557;53.572;10.170;2023-02-22T04:11:50;12.05;;;4.10;;
50605;SDS011;36557;53.572;10.170;2023-02-22T04:14:16;10.18;;;4.57;;
50605;SDS011;36557;53.572;10.170;2023-02-22T04:16:42;9.90;;;3.75;;
50605;SDS011;36557;53.572;10.170;2023-02-22T04:19:07;9.65;;;3.78;;
50605;SDS011;36557;53.572;10.170;2023-02-22T04:21:33;12.40;;;4.13;;
50605;SDS011;36557;53.572;10.170;2023-02-22T04:23:59;12.57;;;4.50;;
50605;SDS011;36557;53.572;10.170;2023-02-22T04:26:24;14.00;;;4.40;;
50605;SDS011;36557;53.572;10.170;2023-02-22T04:28:50;15.77;;;4.38;;
50605;SDS011;36557;53.572;10.170;2023-02-22T04:31:16;11.45;;;4.20;;
50605;SDS011;36557;53.572;10.170;2023-02-22T04:33:42;13.40;;;4.35;;
50605;SDS011;36557;53.572;10.170;2023-02-22T04:36:08;11.48;;;4.20;;
50605;SDS011;36557;53.572;10.170;2023-02-22T04:38:34;14.23;;;4.25;;
50605;SDS011;36557;53.572;10.170;2023-02-22T04:41:01;11.63;;;4.45;;
50605;SDS011;36557;53.572;10.170;2023-02-22T04:43:26;9.38;;;4.10;;
50605;SDS011;36557;53.572;10.170;2023-02-22T04:45:52;10.15;;;4.05;;
50605;SDS011;36557;53.572;10.170;2023-02-22T04:48:18;10.25;;;4.05;;
50605;SDS011;36557;53.572;10.170;2023-02-22T04:50:44;11.90;;;4.40;;
50605;SDS011;36557;53.572;10.170;2023-02-22T04:53:11;11.43;;;3.85;;
50605;SDS011;36557;53.572;10.170;2023-02-22T04:55:37;11.80;;;4.57;;
50605;SDS011;36557;53.572;10.170;2023-02-22T04:58:03;11.85;;;4.30;;
50605;SDS011;36557;53.572;10.170;2023-02-22T05:00:29;16.60;;;4.82;;
50605;SDS011;36557;53.572;10.170;2023-02-22T05:02:54;10.52;;;4.20;;
50605;SDS011;36557;53.572;10.170;2023-02-22T05:05:20;10.73;;;4.72;;
50605;SDS011;36557;53.572;10.170;2023-02-22T05:07:47;9.05;;;4.10;;
50605;SDS011;36557;53.572;10.170;2023-02-22T05:10:13;7.65;;;3.92;;
50605;SDS011;36557;53.572;10.170;2023-02-22T05:12:39;11.77;;;4.25;;
50605;SDS011;36557;53.572;10.170;2023-02-22T05:15:06;9.82;;;5.15;;
50605;SDS011;36557;53.572;10.170;2023-02-22T05:17:33;10.13;;;4.38;;
50605;SDS011;36557;53.572;10.170;2023-02-22T05:20:00;11.25;;;5.38;;
50605;SDS011;36557;53.572;10.170;2023-02-22T05:22:27;11.43;;;5.38;;
50605;SDS011;36557;53.572;10.170;2023-02-22T05:24:53;12.93;;;5.38;;
50605;SDS011;36557;53.572;10.170;2023-02-22T05:27:20;15.38;;;5.30;;
50605;SDS011;36557;53.572;10.170;2023-02-22T05:29:46;15.45;;;5.53;;
50605;SDS011;36557;53.572;10.170;2023-02-22T05:32:12;11.98;;;5.50;;
50605;SDS011;36557;53.572;10.170;2023-02-22T05:34:38;14.00;;;5.70;;
50605;SDS011;36557;53.572;10.170;2023-02-22T05:37:04;15.40;;;6.20;;
50605;SDS011;36557;53.572;10.170;2023-02-22T05:39:30;14.57;;;6.30;;
50605;SDS011;36557;53.572;10.170;2023-02-22T05:41:56;15.10;;;6.38;;
50605;SDS011;36557;53.572;10.170;2023-02-22T05:44:22;13.93;;;6.40;;
50605;SDS011;36557;53.572;10.170;2023-02-22T05:46:48;17.20;;;6.80;;
50605;SDS011;36557;53.572;10.170;2023-02-22T05:49:13;17.10;;;7.38;;
50605;SDS011;36557;53.572;10.170;2023-02-22T05:51:40;17.13;;;6.85;;
50605;SDS011;36557;53.572;10.170;2023-02-22T05:54:06;18.05;;;7.05;;
50605;SDS011;36557;53.572;10.170;2023-02-22T05:56:32;17.67;;;7.68;;
50605;SDS011;36557;53.572;10.170;2023-02-22T05:58:58;14.65;;;6.65;;
50605;SDS011;36557;53.572;10.170;2023-02-22T06:01:23;15.35;;;6.80;;
50605;SDS011;36557;53.572;10.170;2023-02-22T06:03:51;15.27;;;6.88;;
50605;SDS011;36557;53.572;10.170;2023-02-22T06:06:17;16.77;;;7.93;;
50605;SDS011;36557;53.572;10.170;2023-02-22T06:08:44;28.88;;;12.82;;
50605;SDS011;36557;53.572;10.170;2023-02-22T06:11:11;20.20;;;8.10;;
50605;SDS011;36557;53.572;10.170;2023-02-22T06:13:37;19.90;;;8.57;;
50605;SDS011;36557;53.572;10.170;2023-02-22T06:16:05;16.83;;;7.57;;
50605;SDS011;36557;53.572;10.170;2023-02-22T06:18:33;20.17;;;8.48;;
50605;SDS011;36557;53.572;10.170;2023-02-22T06:20:59;21.52;;;8.82;;
50605;SDS011;36557;53.572;10.170;2023-02-22T06:23:25;18.58;;;8.63;;
50605;SDS011;36557;53.572;10.170;2023-02-22T06:25:51;21.40;;;8.65;;
50605;SDS011;36557;53.572;10.170;2023-02-22T06:28:17;20.30;;;8.32;;
50605;SDS011;36557;53.572;10.170;2023-02-22T06:30:42;19.83;;;9.18;;
50605;SDS011;36557;53.572;10.170;2023-02-22T06:33:09;23.80;;;8.60;;
50605;SDS011;36557;53.572;10.170;2023-02-22T06:35:35;20.35;;;8.00;;
50605;SDS011;36557;53.572;10.170;2023-02-22T06:38:01;20.85;;;9.10;;
50605;SDS011;36557;53.572;10.170;2023-02-22T06:40:27;19.63;;;7.72;;
50605;SDS011;36557;53.572;10.170;2023-02-22T06:42:53;21.67;;;8.40;;
50605;SDS011;36557;53.572;10.170;2023-02-22T06:45:20;23.50;;;10.00;;
50605;SDS011;36557;53.572;10.170;2023-02-22T06:47:47;18.60;;;8.75;;
50605;SDS011;36557;53.572;10.170;2023-02-22T06:52:50;22.73;;;8.98;;
50605;SDS011;36557;53.572;10.170;2023-02-22T06:55:20;18.00;;;8.40;;
50605;SDS011;36557;53.572;10.170;2023-02-22T06:57:47;19.45;;;8.20;;
50605;SDS011;36557;53.572;10.170;2023-02-22T07:00:14;23.15;;;8.65;;
50605;SDS011;36557;53.572;10.170;2023-02-22T07:02:42;18.85;;;8.93;;
50605;SDS011;36557;53.572;10.170;2023-02-22T07:05:09;22.70;;;8.55;;
50605;SDS011;36557;53.572;10.170;2023-02-22T07:07:37;21.73;;;9.82;;
50605;SDS011;36557;53.572;10.170;2023-02-22T07:10:06;20.85;;;9.35;;
50605;SDS011;36557;53.572;10.170;2023-02-22T07:12:39;19.73;;;8.93;;
50605;SDS011;36557;53.572;10.170;2023-02-22T07:15:04;16.08;;;8.30;;
50605;SDS011;36557;53.572;10.170;2023-02-22T07:17:30;18.83;;;7.95;;
50605;SDS011;36557;53.572;10.170;2023-02-22T07:19:56;19.05;;;8.68;;
50605;SDS011;36557;53.572;10.170;2023-02-22T07:22:22;19.30;;;8.48;;
50605;SDS011;36557;53.572;10.170;2023-02-22T07:24:48;17.95;;;8.70;;
50605;SDS011;36557;53.572;10.170;2023-02-22T07:27:13;16.80;;;7.88;;
50605;SDS011;36557;53.572;10.170;2023-02-22T07:29:41;22.95;;;9.27;;
50605;SDS011;36557;53.572;10.170;2023-02-22T07:32:07;20.13;;;8.82;;
50605;SDS011;36557;53.572;10.170;2023-02-22T07:34:33;20.00;;;8.77;;
50605;SDS011;36557;53.572;10.170;2023-02-22T07:36:59;22.75;;;9.60;;
50605;SDS011;36557;53.572;10.170;2023-02-22T07:39:25;19.58;;;8.85;;
50605;SDS011;36557;53.572;10.170;2023-02-22T07:41:51;21.42;;;10.07;;
50605;SDS011;36557;53.572;10.170;2023-02-22T07:44:17;22.80;;;10.93;;
50605;SDS011;36557;53.572;10.170;2023-02-22T07:46:46;30.48;;;14.90;;
50605;SDS011;36557;53.572;10.170;2023-02-22T07:49:13;27.98;;;15.00;;
50605;SDS011;36557;53.572;10.170;2023-02-22T07:51:39;43.70;;;24.00;;
50605;SDS011;36557;53.572;10.170;2023-02-22T07:54:04;26.13;;;13.45;;
50605;SDS011;36557;53.572;10.170;2023-02-22T07:56:30;25.98;;;12.65;;
50605;SDS011;36557;53.572;10.170;2023-02-22T07:58:56;32.05;;;16.90;;
50605;SDS011;36557;53.572;10.170;2023-02-22T08:01:22;27.35;;;14.88;;
50605;SDS011;36557;53.572;10.170;2023-02-22T08:03:48;26.45;;;14.48;;
50605;SDS011;36557;53.572;10.170;2023-02-22T08:06:14;19.90;;;11.10;;
50605;SDS011;36557;53.572;10.170;2023-02-22T08:08:40;24.95;;;12.88;;
50605;SDS011;36557;53.572;10.170;2023-02-22T08:11:06;25.13;;;12.13;;
50605;SDS011;36557;53.572;10.170;2023-02-22T08:13:32;20.92;;;10.45;;
50605;SDS011;36557;53.572;10.170;2023-02-22T08:15:58;21.25;;;11.02;;
50605;SDS011;36557;53.572;10.170;2023-02-22T08:18:24;23.20;;;12.65;;
50605;SDS011;36557;53.572;10.170;2023-02-22T08:20:51;19.95;;;10.60;;
50605;SDS011;36557;53.572;10.170;2023-02-22T08:23:19;27.23;;;13.35;;
50605;SDS011;36557;53.572;10.170;2023-02-22T08:25:46;22.98;;;11.18;;
50605;SDS011;36557;53.572;10.170;2023-02-22T08:28:13;23.10;;;10.85;;
50605;SDS011;36557;53.572;10.170;2023-02-22T08:30:41;23.52;;;15.05;;
50605;SDS011;36557;53.572;10.170;2023-02-22T08:33:11;27.85;;;13.48;;
50605;SDS011;36557;53.572;10.170;2023-02-22T08:35:39;21.55;;;10.60;;
50605;SDS011;36557;53.572;10.170;2023-02-22T08:38:06;22.15;;;10.90;;
50605;SDS011;36557;53.572;10.170;2023-02-22T08:40:34;21.63;;;10.23;;
50605;SDS011;36557;53.572;10.170;2023-02-22T08:43:01;20.83;;;9.80;;
50605;SDS011;36557;53.572;10.170;2023-02-22T08:45:27;19.95;;;8.90;;
50605;SDS011;36557;53.572;10.170;2023-02-22T08:47:54;22.75;;;10.63;;
50605;SDS011;36557;53.572;10.170;2023-02-22T08:50:21;24.23;;;11.38;;
50605;SDS011;36557;53.572;10.170;2023-02-22T08:52:52;22.65;;;10.35;;
50605;SDS011;36557;53.572;10.170;2023-02-22T08:55:20;22.05;;;10.45;;
50605;SDS011;36557;53.572;10.170;2023-02-22T08:57:47;38.00;;;15.25;;
50605;SDS011;36557;53.572;10.170;2023-02-22T09:00:14;31.08;;;14.63;;
50605;SDS011;36557;53.572;10.170;2023-02-22T09:02:41;21.77;;;10.85;;
50605;SDS011;36557;53.572;10.170;2023-02-22T09:05:08;23.00;;;11.23;;
50605;SDS011;36557;53.572;10.170;2023-02-22T09:07:34;24.42;;;12.52;;
50605;SDS011;36557;53.572;10.170;2023-02-22T09:09:59;25.23;;;11.23;;
50605;SDS011;36557;53.572;10.170;2023-02-22T09:12:25;24.20;;;11.60;;
50605;SDS011;36557;53.572;10.170;2023-02-22T09:14:51;21.25;;;10.02;;
50605;SDS011;36557;53.572;10.170;2023-02-22T09:17:17;24.15;;;11.13;;
50605;SDS011;36557;53.572;10.170;2023-02-22T09:19:42;25.50;;;10.40;;
50605;SDS011;36557;53.572;10.170;2023-02-22T09:22:09;20.20;;;10.38;;
50605;SDS011;36557;53.572;10.170;2023-02-22T09:24:35;19.52;;;9.20;;
50605;SDS011;36557;53.572;10.170;2023-02-22T09:27:01;20.67;;;9.75;;
50605;SDS011;36557;53.572;10.170;2023-02-22T09:29:28;22.00;;;9.75;;
50605;SDS011;36557;53.572;10.170;2023-02-22T09:31:54;22.13;;;9.13;;
50605;SDS011;36557;53.572;10.170;2023-02-22T09:34:22;20.58;;;9.38;;
50605;SDS011;36557;53.572;10.170;2023-02-22T09:36:53;17.55;;;9.20;;
50605;SDS011;36557;53.572;10.170;2023-02-22T09:39:21;20.92;;;10.07;;
50605;SDS011;36557;53.572;10.170;2023-02-22T09:44:35;17.60;;;9.13;;
50605;SDS011;36557;53.572;10.170;2023-02-22T09:47:18;17.95;;;7.40;;
50605;SDS011;36557;53.572;10.170;2023-02-22T09:50:06;17.35;;;9.25;;
50605;SDS011;36557;53.572;10.170;2023-02-22T09:53:02;17.17;;;8.38;;
50605;SDS011;36557;53.572;10.170;2023-02-22T09:58:24;16.95;;;8.30;;
50605;SDS011;36557;53.572;10.170;2023-02-22T10:01:13;17.42;;;8.05;;
50605;SDS011;36557;53.572;10.170;2023-02-22T10:04:17;18.88;;;9.15;;
50605;SDS011;36557;53.572;10.170;2023-02-22T10:09:30;19.65;;;9.43;;
50605;SDS011;36557;53.572;10.170;2023-02-22T10:12:07;19.17;;;9.63;;
50605;SDS011;36557;53.572;10.170;2023-02-22T10:25:39;14.65;;;7.70;;
50605;SDS011;36557;53.572;10.170;2023-02-22T10:28:13;15.50;;;8.32;;
50605;SDS011;36557;53.572;10.170;2023-02-22T10:30:55;17.30;;;8.02;;
50605;SDS011;36557;53.572;10.170;2023-02-22T10:33:28;17.65;;;8.82;;
50605;SDS011;36557;53.572;10.170;2023-02-22T10:35:57;17.33;;;8.68;;
50605;SDS011;36557;53.572;10.170;2023-02-22T10:38:25;15.32;;;7.47;;
50605;SDS011;36557;53.572;10.170;2023-02-22T10:40:57;15.25;;;7.85;;
50605;SDS011;36557;53.572;10.170;2023-02-22T10:43:26;16.27;;;8.32;;
50605;SDS011;36557;53.572;10.170;2023-02-22T10:45:54;17.73;;;8.27;;
50605;SDS011;36557;53.572;10.170;2023-02-22T10:48:25;16.83;;;9.25;;
50605;SDS011;36557;53.572;10.170;2023-02-22T10:50:56;21.15;;;9.75;;
50605;SDS011;36557;53.572;10.170;2023-02-22T10:53:25;18.73;;;9.27;;
50605;SDS011;36557;53.572;10.170;2023-02-22T10:56:08;16.00;;;8.68;;
50605;SDS011;36557;53.572;10.170;2023-02-22T10:58:50;19.70;;;10.20;;
50605;SDS011;36557;53.572;10.170;2023-02-22T11:01:27;21.45;;;9.60;;
50605;SDS011;36557;53.572;10.170;2023-02-22T11:06:46;18.50;;;7.82;;
50605;SDS011;36557;53.572;10.170;2023-02-22T11:09:15;18.55;;;9.13;;
50605;SDS011;36557;53.572;10.170;2023-02-22T11:11:43;18.20;;;9.80;;
50605;SDS011;36557;53.572;10.170;2023-02-22T11:14:10;20.83;;;10.10;;
50605;SDS011;36557;53.572;10.170;2023-02-22T11:16:42;21.25;;;10.70;;
50605;SDS011;36557;53.572;10.170;2023-02-22T11:21:45;20.40;;;10.63;;
50605;SDS011;36557;53.572;10.170;2023-02-22T11:24:13;16.73;;;10.13;;
50605;SDS011;36557;53.572;10.170;2023-02-22T11:29:21;18.42;;;10.05;;
50605;SDS011;36557;53.572;10.170;2023-02-22T11:31:57;17.10;;;9.88;;
50605;SDS011;36557;53.572;10.170;2023-02-22T11:34:28;16.15;;;9.30;;
50605;SDS011;36557;53.572;10.170;2023-02-22T11:37:13;20.38;;;10.18;;
50605;SDS011;36557;53.572;10.170;2023-02-22T11:39:46;18.77;;;9.60;;
50605;SDS011;36557;53.572;10.170;2023-02-22T11:42:22;18.15;;;9.32;;
50605;SDS011;36557;53.572;10.170;2023-02-22T11:45:07;20.10;;;10.05;;
50605;SDS011;36557;53.572;10.170;2023-02-22T11:47:35;17.33;;;9.27;;
50605;SDS011;36557;53.572;10.170;2023-02-22T11:52:53;18.52;;;9.73;;
50605;SDS011;36557;53.572;10.170;2023-02-22T12:04:09;16.75;;;9.57;;
50605;SDS011;36557;53.572;10.170;2023-02-22T12:06:54;15.38;;;8.57;;
50605;SDS011;36557;53.572;10.170;2023-02-22T12:15:00;16.52;;;9.43;;
50605;SDS011;36557;53.572;10.170;2023-02-22T12:23:11;15.48;;;8.10;;
50605;SDS011;36557;53.572;10.170;2023-02-22T12:33:26;14.38;;;8.38;;
50605;SDS011;36557;53.572;10.170;2023-02-22T12:35:56;16.77;;;7.95;;
50605;SDS011;36557;53.572;10.170;2023-02-22T12:38:29;13.07;;;7.57;;
50605;SDS011;36557;53.572;10.170;2023-02-22T12:41:27;13.80;;;7.60;;
50605;SDS011;36557;53.572;10.170;2023-02-22T12:46:46;18.70;;;8.88;;
50605;SDS011;36557;53.572;10.170;2023-02-22T12:55:03;18.25;;;10.57;;
50605;SDS011;36557;53.572;10.170;2023-02-22T13:02:43;15.75;;;7.95;;
50605;SDS011;36557;53.572;10.170;2023-02-22T13:05:18;19.45;;;11.07;;
50605;SDS011;36557;53.572;10.170;2023-02-22T13:07:52;20.30;;;10.68;;
50605;SDS011;36557;53.572;10.170;2023-02-22T13:10:45;16.15;;;8.57;;
50605;SDS011;36557;53.572;10.170;2023-02-22T13:30:13;12.23;;;7.18;;
50605;SDS011;36557;53.572;10.170;2023-02-22T13:40:44;16.95;;;7.57;;
50605;SDS011;36557;53.572;10.170;2023-02-22T13:45:53;13.52;;;7.22;;
50605;SDS011;36557;53.572;10.170;2023-02-22T13:53:56;15.40;;;8.15;;
50605;SDS011;36557;53.572;10.170;2023-02-22T13:56:41;15.57;;;8.38;;
50605;SDS011;36557;53.572;10.170;2023-02-22T13:59:19;12.70;;;7.72;;
50605;SDS011;36557;53.572;10.170;2023-02-22T14:01:56;14.55;;;7.65;;
50605;SDS011;36557;53.572;10.170;2023-02-22T14:06:55;18.08;;;8.90;;
50605;SDS011;36557;53.572;10.170;2023-02-22T14:09:42;15.57;;;8.20;;
50605;SDS011;36557;53.572;10.170;2023-02-22T14:22:39;16.85;;;9.60;;
50605;SDS011;36557;53.572;10.170;2023-02-22T14:25:27;16.67;;;8.18;;
50605;SDS011;36557;53.572;10.170;2023-02-22T14:27:54;16.88;;;9.05;;
50605;SDS011;36557;53.572;10.170;2023-02-22T14:30:25;17.05;;;9.55;;
50605;SDS011;36557;53.572;10.170;2023-02-22T14:32:53;18.90;;;9.38;;
50605;SDS011;36557;53.572;10.170;2023-02-22T14:35:19;18.10;;;9.98;;
50605;SDS011;36557;53.572;10.170;2023-02-22T14:37:47;20.98;;;10.02;;
50605;SDS011;36557;53.572;10.170;2023-02-22T14:45:54;19.33;;;9.57;;
50605;SDS011;36557;53.572;10.170;2023-02-22T14:48:29;17.13;;;8.98;;
50605;SDS011;36557;53.572;10.170;2023-02-22T14:53:51;18.40;;;9.38;;
50605;SDS011;36557;53.572;10.170;2023-02-22T14:56:35;17.30;;;9.02;;
50605;SDS011;36557;53.572;10.170;2023-02-22T14:59:16;17.77;;;8.77;;
50605;SDS011;36557;53.572;10.170;2023-02-22T15:01:42;16.98;;;8.43;;
50605;SDS011;36557;53.572;10.170;2023-02-22T15:06:46;15.23;;;7.85;;
50605;SDS011;36557;53.572;10.170;2023-02-22T15:09:15;16.73;;;9.18;;
50605;SDS011;36557;53.572;10.170;2023-02-22T15:11:49;15.48;;;8.27;;
50605;SDS011;36557;53.572;10.170;2023-02-22T15:14:18;18.42;;;8.82;;
50605;SDS011;36557;53.572;10.170;2023-02-22T15:16:52;18.60;;;8.50;;
50605;SDS011;36557;53.572;10.170;2023-02-22T15:19:23;17.08;;;8.93;;
50605;SDS011;36557;53.572;10.170;2023-02-22T15:21:52;15.98;;;8.48;;
50605;SDS011;36557;53.572;10.170;2023-02-22T15:24:26;16.05;;;7.53;;
50605;SDS011;36557;53.572;10.170;2023-02-22T15:26:54;14.73;;;8.02;;
50605;SDS011;36557;53.572;10.170;2023-02-22T15:29:36;14.32;;;8.07;;
50605;SDS011;36557;53.572;10.170;2023-02-22T15:32:18;15.30;;;8.38;;
50605;SDS011;36557;53.572;10.170;2023-02-22T15:35:11;14.23;;;7.68;;
50605;SDS011;36557;53.572;10.170;2023-02-22T15:37:43;16.75;;;8.35;;
50605;SDS011;36557;53.572;10.170;2023-02-22T15:40:14;16.70;;;8.38;;
50605;SDS011;36557;53.572;10.170;2023-02-22T15:42:43;15.30;;;8.55;;
50605;SDS011;36557;53.572;10.170;2023-02-22T15:45:14;17.45;;;8.45;;
50605;SDS011;36557;53.572;10.170;2023-02-22T15:47:44;15.23;;;7.88;;
50605;SDS011;36557;53.572;10.170;2023-02-22T15:50:17;13.63;;;7.60;;
50605;SDS011;36557;53.572;10.170;2023-02-22T15:55:37;17.83;;;9.10;;
50605;SDS011;36557;53.572;10.170;2023-02-22T16:00:48;16.58;;;8.82;;
50605;SDS011;36557;53.572;10.170;2023-02-22T16:03:23;20.08;;;8.98;;
50605;SDS011;36557;53.572;10.170;2023-02-22T16:05:57;17.05;;;8.43;;
50605;SDS011;36557;53.572;10.170;2023-02-22T16:08:40;14.98;;;7.93;;
50605;SDS011;36557;53.572;10.170;2023-02-22T16:14:06;16.55;;;8.60;;
50605;SDS011;36557;53.572;10.170;2023-02-22T16:19:53;17.15;;;8.45;;
50605;SDS011;36557;53.572;10.170;2023-02-22T16:22:23;19.85;;;9.40;;
50605;SDS011;36557;53.572;10.170;2023-02-22T16:25:13;21.25;;;10.25;;
50605;SDS011;36557;53.572;10.170;2023-02-22T16:27:43;18.80;;;9.48;;
50605;SDS011;36557;53.572;10.170;2023-02-22T16:32:43;24.42;;;9.90;;
50605;SDS011;36557;53.572;10.170;2023-02-22T16:35:10;19.02;;;10.88;;
50605;SDS011;36557;53.572;10.170;2023-02-22T16:37:51;21.92;;;10.45;;
50605;SDS011;36557;53.572;10.170;2023-02-22T16:40:38;19.40;;;10.15;;
50605;SDS011;36557;53.572;10.170;2023-02-22T16:43:12;25.30;;;13.70;;
50605;SDS011;36557;53.572;10.170;2023-02-22T16:45:41;21.00;;;10.45;;
50605;SDS011;36557;53.572;10.170;2023-02-22T16:48:23;23.88;;;12.05;;
50605;SDS011;36557;53.572;10.170;2023-02-22T16:50:51;23.85;;;10.95;;
50605;SDS011;36557;53.572;10.170;2023-02-22T16:53:20;22.10;;;11.52;;
50605;SDS011;36557;53.572;10.170;2023-02-22T16:55:48;20.80;;;10.18;;
50605;SDS011;36557;53.572;10.170;2023-02-22T16:58:17;19.27;;;9.63;;
50605;SDS011;36557;53.572;10.170;2023-02-22T17:00:43;17.13;;;9.48;;
50605;SDS011;36557;53.572;10.170;2023-02-22T17:03:18;20.88;;;9.82;;
50605;SDS011;36557;53.572;10.170;2023-02-22T17:05:45;16.42;;;9.13;;
50605;SDS011;36557;53.572;10.170;2023-02-22T17:08:11;21.42;;;11.10;;
50605;SDS011;36557;53.572;10.170;2023-02-22T17:10:37;18.52;;;9.63;;
50605;SDS011;36557;53.572;10.170;2023-02-22T17:13:02;17.98;;;9.93;;
50605;SDS011;36557;53.572;10.170;2023-02-22T17:15:31;19.15;;;10.65;;
50605;SDS011;36557;53.572;10.170;2023-02-22T17:17:59;19.20;;;10.68;;
50605;SDS011;36557;53.572;10.170;2023-02-22T17:20:29;18.55;;;10.05;;
50605;SDS011;36557;53.572;10.170;2023-02-22T17:22:56;20.83;;;9.80;;
50605;SDS011;36557;53.572;10.170;2023-02-22T17:25:42;19.40;;;9.27;;
50605;SDS011;36557;53.572;10.170;2023-02-22T17:28:11;17.27;;;8.63;;
50605;SDS011;36557;53.572;10.170;2023-02-22T17:30:37;16.25;;;9.00;;
50605;SDS011;36557;53.572;10.170;2023-02-22T17:33:04;16.33;;;7.63;;
50605;SDS011;36557;53.572;10.170;2023-02-22T17:35:32;18.73;;;8.70;;
50605;SDS011;36557;53.572;10.170;2023-02-22T17:38:00;14.30;;;8.23;;